KSFO/SFO METAR and TAF weather

Enter ICAO airport designator
Station Type Date Time Source
KSFO METAR 2020/04/05 11:56 UTC NOAA

KSFO 051156Z 13007KT 10SM BKN020 BKN039 OVC049 12/08 A2964 RMK AO2 RAB07E34 SLP037 P0000 60003 70029 T01170083 10128 20111 58015 $


Station Type Date Time Source
KSFO Decoded METAR 2020/04/05 11:56 UTC NOAA

SAN FRANCISCO INTERNATIONAL AIRPORT , CA, United States (KSFO) 37-37N 122-22W 26M
Apr 05, 2020 - 07:56 AM EDT / 2020.04.05 1156 UTC
Wind: from the SE (130 degrees) at 8 MPH (7 KT):0
Visibility: 10 mile(s):0
Sky conditions: overcast
Precipitation last hour: A trace
Temperature: 53.1 F (11.7 C)
Dew Point: 46.9 F (8.3 C)
Relative Humidity: 79%
Pressure (altimeter): 29.64 in. Hg (1003 hPa)
Pressure tendency: 0.04 inches (1.5 hPa) lower than three hours ago
ob: KSFO 051156Z 13007KT 10SM BKN020 BKN039 OVC049 12/08 A2964 RMK AO2 RAB07E34 SLP037 P0000 60003 70029 T01170083 10128 20111 58015
cycle: 12

Station Type Date Time Source
KSFO TAF 2020/04/05 12:24 UTC NOAA

TAF KSFO 051122Z 0512/0618 17010G17KT P6SM -SHRA OVC035
FM051400 16020G32KT 5SM SHRA BKN025 OVC030
FM051700 23018G26KT 4SM RA VCTS OVC020CB
FM052100 23016KT 5SM -SHRA BR VCTS OVC025CB
FM060100 26010KT P6SM VCSH BKN025
FM061000 28008KT P6SM SCT025

Example: see airport list